createdAt,value
2022-12-12T00:00:17.658Z,-3.608796
2022-12-12T00:05:17.452Z,-3.606481
2022-12-12T00:10:17.520Z,-3.587963
2022-12-12T00:15:17.564Z,-3.581019
2022-12-12T00:20:17.431Z,-3.555556
2022-12-12T00:25:17.394Z,-3.550926
2022-12-12T00:30:17.566Z,-3.537037
2022-12-12T00:35:17.641Z,-3.513889
2022-12-12T00:40:17.308Z,-3.497685
2022-12-12T00:45:17.451Z,-3.476852
2022-12-12T00:50:17.504Z,-3.449074
2022-12-12T00:55:17.723Z,-3.444444
2022-12-12T01:00:17.413Z,-3.437500
2022-12-12T01:05:17.373Z,-3.414352
2022-12-12T01:10:17.376Z,-3.395833
2022-12-12T01:15:17.345Z,-3.386574
2022-12-12T01:20:17.349Z,-3.377315
2022-12-12T01:25:17.473Z,-3.354167
2022-12-12T01:30:17.609Z,-3.337963
2022-12-12T01:35:17.375Z,-3.331019
2022-12-12T01:40:17.654Z,-3.328704
2022-12-12T01:45:17.497Z,-3.331019
2022-12-12T01:50:17.562Z,-3.331019
2022-12-12T01:55:17.968Z,-3.328704
2022-12-12T02:00:17.710Z,-3.328704
2022-12-12T02:05:17.357Z,-3.331019
2022-12-12T02:10:17.298Z,-3.324074
2022-12-12T02:15:17.313Z,-3.328704
2022-12-12T02:20:17.444Z,-3.324074
2022-12-12T02:25:17.331Z,-3.326389
2022-12-12T02:30:17.295Z,-3.331019
2022-12-12T02:35:17.341Z,-3.331019
2022-12-12T02:40:17.305Z,-3.326389
2022-12-12T02:45:17.356Z,-3.317130
2022-12-12T02:50:17.348Z,-3.300926
2022-12-12T02:55:17.294Z,-3.284722
2022-12-12T03:00:17.321Z,-3.277778
2022-12-12T03:05:17.790Z,-3.268519
2022-12-12T03:10:17.269Z,-3.252315
2022-12-12T03:15:17.325Z,-3.222222
2022-12-12T03:20:17.401Z,-3.189815
2022-12-12T03:25:17.395Z,-3.168981
2022-12-12T03:30:17.512Z,-3.164352
2022-12-12T03:35:17.486Z,-3.148148
2022-12-12T03:40:17.389Z,-3.115741
2022-12-12T03:45:17.292Z,-3.097222
2022-12-12T03:50:17.482Z,-3.090278
2022-12-12T03:55:17.568Z,-3.092593
2022-12-12T04:00:17.446Z,-3.099537
2022-12-12T04:05:17.701Z,-3.104167
2022-12-12T04:10:17.371Z,-3.104167
2022-12-12T04:15:17.444Z,-3.118056
2022-12-12T04:20:17.542Z,-3.113426
2022-12-12T04:25:17.465Z,-3.120370
2022-12-12T04:30:17.346Z,-3.138889
2022-12-12T04:35:17.267Z,-3.157407
2022-12-12T04:40:17.375Z,-3.150463
2022-12-12T04:45:17.371Z,-3.166667
2022-12-12T04:50:17.308Z,-3.178241
2022-12-12T04:55:17.258Z,-3.208333
2022-12-12T05:00:17.237Z,-3.219907
2022-12-12T05:05:17.351Z,-3.226852
2022-12-12T05:10:17.226Z,-3.243056
2022-12-12T05:15:17.219Z,-3.256944
2022-12-12T05:20:17.413Z,-3.263889
2022-12-12T05:25:17.250Z,-3.277778
2022-12-12T05:30:17.474Z,-3.277778
2022-12-12T05:35:17.364Z,-3.277778
2022-12-12T05:40:17.230Z,-3.284722
2022-12-12T05:45:17.694Z,-3.282407
2022-12-12T05:50:17.596Z,-3.282407
2022-12-12T05:55:17.480Z,-3.277778
2022-12-12T06:00:17.383Z,-3.277778
2022-12-12T06:05:17.350Z,-3.298611
2022-12-12T06:10:17.469Z,-3.331019
2022-12-12T06:15:17.220Z,-3.335648
2022-12-12T06:20:17.234Z,-3.386574
2022-12-12T06:25:17.343Z,-3.393519
2022-12-12T06:30:17.289Z,-3.418981
2022-12-12T06:35:17.235Z,-3.442130
2022-12-12T06:40:17.270Z,-3.446759
2022-12-12T06:45:17.479Z,-3.465278
2022-12-12T06:50:23.384Z,-3.481481
2022-12-12T06:55:17.245Z,-3.495370
2022-12-12T07:00:17.357Z,-3.500000
2022-12-12T07:05:17.340Z,-3.497685
2022-12-12T07:10:21.195Z,-3.500000
2022-12-12T07:15:17.416Z,-3.497685
2022-12-12T07:20:17.239Z,-3.495370
2022-12-12T07:25:17.217Z,-3.479167
2022-12-12T07:30:17.255Z,-3.467593
2022-12-12T07:35:17.357Z,-3.449074
2022-12-12T07:40:17.200Z,-3.437500
2022-12-12T07:45:18.604Z,-3.391204
2022-12-12T07:50:17.225Z,-3.386574
2022-12-12T07:55:17.376Z,-3.349537
2022-12-12T08:00:17.271Z,-3.333333
2022-12-12T08:05:17.729Z,-3.324074
2022-12-12T08:10:17.875Z,-3.287037
2022-12-12T08:15:17.252Z,-3.273148
2022-12-12T08:20:17.600Z,-3.226852
2022-12-12T08:25:17.722Z,-3.185185
2022-12-12T08:30:17.341Z,-3.125000
2022-12-12T08:35:17.246Z,-3.053241
2022-12-12T08:40:17.199Z,-2.956019
2022-12-12T08:45:17.151Z,-2.884259
2022-12-12T08:50:17.229Z,-2.812500
2022-12-12T08:55:17.291Z,-2.768519
2022-12-12T09:00:17.434Z,-2.692130
2022-12-12T09:05:17.327Z,-2.606481
2022-12-12T09:10:17.216Z,-2.523148
2022-12-12T09:15:17.168Z,-2.428241
2022-12-12T09:20:17.212Z,-2.335648
2022-12-12T09:25:17.500Z,-2.305556
2022-12-12T09:30:17.164Z,-2.277778
2022-12-12T09:35:17.490Z,-2.264444
2022-12-12T09:40:17.321Z,-2.175926
2022-12-12T09:45:17.561Z,-2.083333
2022-12-12T09:50:17.188Z,-1.995370
2022-12-12T09:55:17.256Z,-1.872685
2022-12-12T10:00:17.457Z,-1.773333
2022-12-12T10:05:17.367Z,-1.664352
2022-12-12T10:10:17.242Z,-1.534722
2022-12-12T10:15:17.301Z,-1.477778
2022-12-12T10:20:17.299Z,-1.393519
2022-12-12T10:25:17.615Z,-1.328704
2022-12-12T10:30:17.209Z,-1.289352
2022-12-12T10:35:24.357Z,-1.280093
2022-12-12T10:40:17.238Z,-1.268519
2022-12-12T10:45:17.194Z,-1.259259
2022-12-12T10:50:17.178Z,-1.215278
2022-12-12T10:55:17.297Z,-1.210648
2022-12-12T11:00:17.360Z,-1.235556
2022-12-12T11:05:17.234Z,-1.266204
2022-12-12T11:10:17.376Z,-1.298611
2022-12-12T11:15:17.194Z,-1.333333
2022-12-12T11:20:17.377Z,-1.377315
2022-12-12T11:25:17.124Z,-1.402222
2022-12-12T11:30:17.255Z,-1.400000
2022-12-12T11:35:17.162Z,-1.375000
2022-12-12T11:40:17.184Z,-1.321759
2022-12-12T11:45:17.210Z,-1.317130
2022-12-12T11:50:17.220Z,-1.331019
2022-12-12T11:55:17.424Z,-1.252315
2022-12-12T12:00:17.143Z,-1.157778
2022-12-12T12:05:17.175Z,-1.160000
2022-12-12T12:10:22.536Z,-1.092593
2022-12-12T12:15:17.146Z,-1.057870
2022-12-12T12:20:17.371Z,-1.018519
2022-12-12T12:25:17.113Z,-0.907407
2022-12-12T12:30:17.399Z,-0.875000
2022-12-12T12:35:17.396Z,-0.891204
2022-12-12T12:40:17.236Z,-0.891204
2022-12-12T12:45:17.671Z,-0.935185
2022-12-12T12:50:18.135Z,-0.949074
2022-12-12T12:55:16.965Z,-0.993056
2022-12-12T13:00:17.462Z,-1.032407
2022-12-12T13:05:17.167Z,-1.076389
2022-12-12T13:10:17.633Z,-1.187500
2022-12-12T13:15:17.155Z,-1.263889
2022-12-12T13:20:17.337Z,-1.333333
2022-12-12T13:25:17.516Z,-1.418981
2022-12-12T13:30:17.421Z,-1.525463
2022-12-12T13:35:17.601Z,-1.615556
2022-12-12T13:40:17.636Z,-1.692130
2022-12-12T13:45:17.272Z,-1.768519
2022-12-12T13:50:17.458Z,-1.798611
2022-12-12T13:55:17.147Z,-1.844907
2022-12-12T14:00:17.430Z,-1.897778
2022-12-12T14:05:17.154Z,-1.949074
2022-12-12T14:10:17.260Z,-2.011574
2022-12-12T14:15:17.138Z,-2.062222
2022-12-12T14:20:17.129Z,-2.152778
2022-12-12T14:25:17.195Z,-2.215278
2022-12-12T14:30:17.153Z,-2.254630
2022-12-12T14:35:17.041Z,-2.349537
2022-12-12T14:40:17.683Z,-2.449074
2022-12-12T14:45:17.127Z,-2.520833
2022-12-12T14:50:17.304Z,-2.587963
2022-12-12T14:55:17.456Z,-2.693333
2022-12-12T15:00:17.224Z,-2.780093
2022-12-12T15:10:17.734Z,-2.910628
2022-12-12T15:15:17.132Z,-2.964444
2022-12-12T15:20:17.404Z,-3.018519
2022-12-12T15:25:17.088Z,-3.055556
2022-12-12T15:30:17.345Z,-3.055556
2022-12-12T15:35:17.121Z,-3.073333
2022-12-12T15:40:17.261Z,-3.086667
2022-12-12T15:45:17.123Z,-3.108796
2022-12-12T15:50:17.098Z,-3.148148
2022-12-12T15:55:17.009Z,-3.162037
2022-12-12T16:00:17.086Z,-3.166667
2022-12-12T16:05:17.094Z,-3.185185
2022-12-12T16:10:17.164Z,-3.206019
2022-12-12T16:15:17.104Z,-3.215278
2022-12-12T16:20:17.478Z,-3.222222
2022-12-12T16:25:17.296Z,-3.224537
2022-12-12T16:30:17.760Z,-3.226667
2022-12-12T16:35:17.056Z,-3.240741
2022-12-12T16:40:17.363Z,-3.247685
2022-12-12T16:45:17.726Z,-3.259259
2022-12-12T16:50:17.083Z,-3.259259
2022-12-12T16:55:17.093Z,-3.260000
2022-12-12T17:00:17.524Z,-3.275463
2022-12-12T17:05:17.018Z,-3.277778
2022-12-12T17:10:17.254Z,-3.287037
2022-12-12T17:15:16.987Z,-3.307870
2022-12-12T17:20:17.413Z,-3.333333
2022-12-12T17:25:17.098Z,-3.375000
2022-12-12T17:30:17.401Z,-3.384259
2022-12-12T17:35:16.945Z,-3.388889
2022-12-12T17:40:17.083Z,-3.388889
2022-12-12T17:45:17.069Z,-3.395833
2022-12-12T17:50:17.177Z,-3.425926
2022-12-12T17:55:53.231Z,-3.444444
2022-12-12T18:00:17.173Z,-3.444444
2022-12-12T18:05:17.006Z,-3.446759
2022-12-12T18:10:17.126Z,-3.446759
2022-12-12T18:15:17.396Z,-3.465278
2022-12-12T18:20:17.670Z,-3.490741
2022-12-12T18:25:17.271Z,-3.502222
2022-12-12T18:30:17.617Z,-3.557870
2022-12-12T18:35:17.023Z,-3.592593
2022-12-12T18:40:17.389Z,-3.608796
2022-12-12T18:45:17.118Z,-3.625000
2022-12-12T18:50:17.239Z,-3.657407
2022-12-12T18:55:16.938Z,-3.666667
2022-12-12T19:00:17.199Z,-3.675926
2022-12-12T19:05:17.100Z,-3.699074
2022-12-12T19:10:17.453Z,-3.717593
2022-12-12T19:15:17.969Z,-3.724537
2022-12-12T19:20:17.563Z,-3.728889
2022-12-12T19:25:17.039Z,-3.737778
2022-12-12T19:30:18.601Z,-3.748889
2022-12-12T19:35:17.148Z,-3.757778
2022-12-12T19:40:17.311Z,-3.766204
2022-12-12T19:45:17.411Z,-3.771111
2022-12-12T19:50:17.528Z,-3.777778
2022-12-12T19:55:17.114Z,-3.777778
2022-12-12T20:00:17.333Z,-3.777778
2022-12-12T20:05:16.982Z,-3.777778
2022-12-12T20:10:17.258Z,-3.777778
2022-12-12T20:15:17.051Z,-3.777778
2022-12-12T20:20:17.063Z,-3.777778
2022-12-12T20:25:17.008Z,-3.775463
2022-12-12T20:30:17.292Z,-3.763889
2022-12-12T20:35:17.206Z,-3.731481
2022-12-12T20:40:17.347Z,-3.713333
2022-12-12T20:45:17.274Z,-3.677778
2022-12-12T20:50:17.029Z,-3.662037
2022-12-12T20:55:17.426Z,-3.645833
2022-12-12T21:00:17.489Z,-3.618056
2022-12-12T21:05:17.384Z,-3.611111
2022-12-12T21:10:17.411Z,-3.584444
2022-12-12T21:15:17.259Z,-3.562500
2022-12-12T21:20:16.966Z,-3.555556
2022-12-12T21:25:17.003Z,-3.551111
2022-12-12T21:30:17.049Z,-3.546296
2022-12-12T21:35:17.327Z,-3.541667
2022-12-12T21:40:16.980Z,-3.518519
2022-12-12T21:45:17.076Z,-3.520833
2022-12-12T21:50:16.978Z,-3.511574
2022-12-12T21:55:17.058Z,-3.506944
2022-12-12T22:00:17.203Z,-3.534722
2022-12-12T22:05:17.151Z,-3.548611
2022-12-12T22:10:17.016Z,-3.553241
2022-12-12T22:15:17.229Z,-3.560185
2022-12-12T22:20:16.999Z,-3.578704
2022-12-12T22:25:17.092Z,-3.590278
2022-12-12T22:30:16.923Z,-3.606481
2022-12-12T22:35:17.143Z,-3.613333
2022-12-12T22:40:16.939Z,-3.631944
2022-12-12T22:45:17.190Z,-3.662037
2022-12-12T22:50:17.045Z,-3.701389
2022-12-12T22:55:17.068Z,-3.756944
2022-12-12T23:00:16.958Z,-3.793333
2022-12-12T23:05:17.700Z,-3.847222
2022-12-12T23:10:17.466Z,-3.886667
2022-12-12T23:15:17.442Z,-3.942222
2022-12-12T23:20:17.009Z,-3.973333
2022-12-12T23:25:17.435Z,-4.037037
2022-12-12T23:30:16.895Z,-4.057870
2022-12-12T23:35:17.246Z,-4.069444
2022-12-12T23:40:16.988Z,-4.092593
2022-12-12T23:45:17.265Z,-4.111111
2022-12-12T23:50:17.024Z,-4.152778
2022-12-12T23:55:17.116Z,-4.202222
